Time;durP1;ratioP1;P1;durP2;ratioP2;P2;SDS_P1;SDS_P2;PMS_P1;PMS_P2;Temp;Humidity;BMP_temperature;BMP_pressure;BME280_temperature;BME280_humidity;BME280_pressure;Samples;Min_cycle;Max_cycle;Signal;HPM_P1;HPM_P2
2022/01/20 00:02:20;;;;;;;16.27;2.13;;;;;;;;;;4998840;28;20485;-88
2022/01/20 00:04:52;;;;;;;16.55;1.52;;;;;;;;;;5002301;28;20127;-88
2022/01/20 00:26:14;;;;;;;18.55;2.13;;;;;;;;;;5006131;28;20116;-88
2022/01/20 00:28:43;;;;;;;12.98;1.58;;;;;;;;;;4999499;28;20029;-87
2022/01/20 00:33:46;;;;;;;18.00;2.22;;;;;;;;;;5013495;28;20105;-88
2022/01/20 00:38:42;;;;;;;16.33;1.98;;;;;;;;;;5015843;28;20509;-88
2022/01/20 00:41:14;;;;;;;12.80;1.90;;;;;;;;;;5013673;28;20018;-88
2022/01/20 00:43:40;;;;;;;11.52;3.10;;;;;;;;;;5002641;28;20531;-87
2022/01/20 00:46:06;;;;;;;17.08;2.17;;;;;;;;;;5006609;28;20040;-87
2022/01/20 00:48:32;;;;;;;11.88;2.40;;;;;;;;;;4994082;28;20571;-87
2022/01/20 00:50:58;;;;;;;15.73;1.77;;;;;;;;;;5010213;28;20385;-88
2022/01/20 00:53:25;;;;;;;11.23;1.70;;;;;;;;;;5015836;28;20657;-87
2022/01/20 00:55:51;;;;;;;11.88;1.67;;;;;;;;;;5002923;28;20427;-88
2022/01/20 00:58:17;;;;;;;24.13;2.75;;;;;;;;;;5006218;28;20072;-87
2022/01/20 01:00:43;;;;;;;9.57;1.75;;;;;;;;;;5003096;28;20036;-88
2022/01/20 01:03:09;;;;;;;16.90;2.17;;;;;;;;;;5005408;28;20044;-88
2022/01/20 01:05:42;;;;;;;14.50;2.25;;;;;;;;;;4994834;28;20176;-89
2022/01/20 01:08:09;;;;;;;10.30;1.73;;;;;;;;;;5019636;28;20021;-88
2022/01/20 01:10:38;;;;;;;9.52;1.23;;;;;;;;;;4999460;28;20033;-88
2022/01/20 01:13:09;;;;;;;9.02;0.82;;;;;;;;;;5005276;28;20045;-87
2022/01/20 01:15:43;;;;;;;6.80;0.70;;;;;;;;;;5019292;28;20088;-87
2022/01/20 01:23:25;;;;;;;16.42;1.42;;;;;;;;;;5016294;28;20045;-88
2022/01/20 01:25:52;;;;;;;4.70;0.88;;;;;;;;;;5001115;28;20501;-88
2022/01/20 01:28:20;;;;;;;8.93;1.73;;;;;;;;;;4997897;28;20478;-88
2022/01/20 01:31:18;;;;;;;16.95;1.83;;;;;;;;;;5003671;28;20029;-87
2022/01/20 01:33:35;;;;;;;16.92;1.77;;;;;;;;;;5011571;28;20041;-87
2022/01/20 01:36:04;;;;;;;17.23;0.80;;;;;;;;;;4998664;28;20576;-87
2022/01/20 01:38:36;;;;;;;2.60;0.88;;;;;;;;;;5005923;28;20037;-87
2022/01/20 01:41:09;;;;;;;13.10;1.50;;;;;;;;;;5002538;28;20038;-86
2022/01/20 01:43:36;;;;;;;20.85;1.70;;;;;;;;;;4999225;28;20541;-88
2022/01/20 01:46:03;;;;;;;7.20;0.90;;;;;;;;;;5013118;28;20502;-87
2022/01/20 01:48:29;;;;;;;9.23;1.63;;;;;;;;;;5019416;28;20036;-87
2022/01/20 01:50:55;;;;;;;6.63;1.00;;;;;;;;;;4998808;28;20029;-87
2022/01/20 01:53:21;;;;;;;12.38;1.25;;;;;;;;;;5001902;28;20133;-87
2022/01/20 01:55:48;;;;;;;19.67;3.17;;;;;;;;;;5000805;28;20534;-86
2022/01/20 01:58:14;;;;;;;19.92;2.88;;;;;;;;;;5005543;28;20510;-87
2022/01/20 02:00:41;;;;;;;14.73;2.22;;;;;;;;;;4997341;28;20389;-86
2022/01/20 02:03:07;;;;;;;14.20;2.63;;;;;;;;;;5000155;28;20497;-86
2022/01/20 02:05:37;;;;;;;11.85;2.30;;;;;;;;;;5002696;28;20068;-86
2022/01/20 02:18:52;;;;;;;13.32;1.85;;;;;;;;;;5021419;28;20397;-87
2022/01/20 02:21:18;;;;;;;6.20;1.38;;;;;;;;;;5002392;28;20087;-87
2022/01/20 02:23:45;;;;;;;14.88;2.25;;;;;;;;;;5000706;28;20056;-87
2022/01/20 02:26:11;;;;;;;18.63;2.45;;;;;;;;;;5001424;28;20395;-86
2022/01/20 02:28:37;;;;;;;16.88;1.98;;;;;;;;;;5000598;28;20032;-87
2022/01/20 02:31:04;;;;;;;22.42;2.72;;;;;;;;;;5012205;28;20546;-87
2022/01/20 02:33:31;;;;;;;29.30;2.75;;;;;;;;;;5018089;28;20108;-87
2022/01/20 02:36:08;;;;;;;17.13;2.55;;;;;;;;;;4998373;28;20623;-87
2022/01/20 02:38:53;;;;;;;24.33;3.03;;;;;;;;;;5019615;28;20426;-87
2022/01/20 02:46:48;;;;;;;31.67;3.97;;;;;;;;;;5011936;28;20234;-87
2022/01/20 02:49:16;;;;;;;46.47;3.78;;;;;;;;;;4998568;28;20573;-87
2022/01/20 02:51:52;;;;;;;34.70;3.55;;;;;;;;;;5004652;28;20049;-87
2022/01/20 02:54:19;;;;;;;30.75;3.17;;;;;;;;;;5002942;28;20071;-87
2022/01/20 02:56:45;;;;;;;15.65;3.67;;;;;;;;;;4994429;28;20492;-86
2022/01/20 02:59:11;;;;;;;26.60;4.78;;;;;;;;;;5002420;28;20037;-87
2022/01/20 03:01:38;;;;;;;21.52;3.13;;;;;;;;;;4995466;28;20099;-87
2022/01/20 03:04:04;;;;;;;22.58;2.80;;;;;;;;;;5002453;28;20482;-87
2022/01/20 03:06:31;;;;;;;29.90;3.38;;;;;;;;;;5011803;28;20034;-87
2022/01/20 03:08:57;;;;;;;18.45;3.42;;;;;;;;;;4994155;28;20501;-87
2022/01/20 03:11:23;;;;;;;21.67;2.47;;;;;;;;;;4999322;28;20029;-87
2022/01/20 03:13:49;;;;;;;35.45;4.38;;;;;;;;;;5000406;28;20021;-87
2022/01/20 03:16:15;;;;;;;28.17;3.28;;;;;;;;;;5001715;28;20675;-87
2022/01/20 03:18:41;;;;;;;38.42;4.10;;;;;;;;;;5011177;28;20115;-87
2022/01/20 03:21:07;;;;;;;21.67;2.30;;;;;;;;;;4999430;28;20076;-87
2022/01/20 03:23:33;;;;;;;37.13;3.70;;;;;;;;;;5000523;28;20056;-87
2022/01/20 03:25:59;;;;;;;30.45;4.40;;;;;;;;;;5001440;28;20034;-87
2022/01/20 03:28:25;;;;;;;33.80;4.80;;;;;;;;;;5001341;28;20048;-87
2022/01/20 03:30:51;;;;;;;29.70;4.15;;;;;;;;;;5018502;28;20025;-87
2022/01/20 03:33:17;;;;;;;44.90;5.60;;;;;;;;;;4999093;28;21991;-87
2022/01/20 03:35:43;;;;;;;38.05;4.63;;;;;;;;;;5016573;28;20129;-88
2022/01/20 03:38:09;;;;;;;36.22;4.00;;;;;;;;;;4994462;28;20493;-87
2022/01/20 03:40:35;;;;;;;25.33;2.42;;;;;;;;;;5004991;28;20382;-87
2022/01/20 03:43:01;;;;;;;14.35;1.20;;;;;;;;;;5000053;28;20040;-87
2022/01/20 03:45:28;;;;;;;17.90;1.92;;;;;;;;;;4999855;28;20049;-87
2022/01/20 03:47:58;;;;;;;28.33;3.97;;;;;;;;;;5002701;28;20588;-87
2022/01/20 03:53:09;;;;;;;12.63;2.67;;;;;;;;;;5016644;28;20305;-87
2022/01/20 03:55:35;;;;;;;16.92;1.95;;;;;;;;;;4997213;28;20037;-87
2022/01/20 03:58:01;;;;;;;12.77;2.20;;;;;;;;;;5018045;28;20339;-87
2022/01/20 04:00:27;;;;;;;15.30;3.17;;;;;;;;;;5002365;28;20494;-87
2022/01/20 04:02:53;;;;;;;21.60;3.58;;;;;;;;;;4995501;28;20029;-87
2022/01/20 04:05:19;;;;;;;12.05;2.00;;;;;;;;;;5004166;28;20029;-87
2022/01/20 04:07:45;;;;;;;29.65;2.90;;;;;;;;;;5019729;28;20500;-87
2022/01/20 04:10:11;;;;;;;13.77;2.20;;;;;;;;;;5003304;28;20246;-87
2022/01/20 04:12:37;;;;;;;12.60;2.53;;;;;;;;;;5001308;28;20030;-87
2022/01/20 04:15:08;;;;;;;16.55;2.38;;;;;;;;;;5019535;28;20029;-87
2022/01/20 04:17:35;;;;;;;28.27;2.97;;;;;;;;;;5001864;28;20705;-87
2022/01/20 04:20:01;;;;;;;21.02;2.53;;;;;;;;;;5004519;28;20021;-87
2022/01/20 04:22:28;;;;;;;13.15;1.95;;;;;;;;;;5014205;28;20038;-87
2022/01/20 04:24:54;;;;;;;17.70;2.67;;;;;;;;;;5019004;28;20030;-87
2022/01/20 04:27:20;;;;;;;17.00;2.55;;;;;;;;;;5004833;28;20045;-87
2022/01/20 04:29:46;;;;;;;14.52;2.88;;;;;;;;;;5007832;28;20261;-87
2022/01/20 04:32:12;;;;;;;9.45;2.40;;;;;;;;;;5002976;28;20029;-87
2022/01/20 04:34:38;;;;;;;17.10;2.35;;;;;;;;;;4996170;28;20049;-87
2022/01/20 04:37:05;;;;;;;12.27;1.80;;;;;;;;;;4984181;28;20140;-87
2022/01/20 04:39:35;;;;;;;14.25;2.28;;;;;;;;;;4984380;28;20030;-87
2022/01/20 04:42:01;;;;;;;9.73;2.95;;;;;;;;;;5000411;28;20042;-87
2022/01/20 04:57:48;;;;;;;15.52;1.98;;;;;;;;;;5000097;28;20091;-88
2022/01/20 05:00:21;;;;;;;19.27;2.72;;;;;;;;;;5001532;28;20038;-88
2022/01/20 05:02:47;;;;;;;12.70;1.75;;;;;;;;;;4981213;28;20755;-88
2022/01/20 05:05:13;;;;;;;9.68;1.38;;;;;;;;;;5005768;28;20045;-87
2022/01/20 05:07:39;;;;;;;9.57;2.10;;;;;;;;;;4980129;28;20471;-87
2022/01/20 05:10:11;;;;;;;20.38;2.05;;;;;;;;;;4986856;28;20026;-87
2022/01/20 05:15:20;;;;;;;4.03;1.00;;;;;;;;;;4997647;28;20068;-87
2022/01/20 05:17:46;;;;;;;11.25;1.20;;;;;;;;;;4988925;28;20082;-87
2022/01/20 05:20:12;;;;;;;7.07;1.27;;;;;;;;;;4986535;28;20029;-87
2022/01/20 05:22:38;;;;;;;8.70;0.82;;;;;;;;;;4985695;28;20025;-87
2022/01/20 05:25:04;;;;;;;3.45;0.77;;;;;;;;;;4981146;28;20080;-88
2022/01/20 05:27:30;;;;;;;8.50;1.55;;;;;;;;;;5002189;28;20088;-87
2022/01/20 05:29:57;;;;;;;13.55;1.92;;;;;;;;;;4981373;28;20482;-87
2022/01/20 05:32:30;;;;;;;12.73;2.53;;;;;;;;;;4988081;28;20410;-87
2022/01/20 05:34:56;;;;;;;6.88;1.20;;;;;;;;;;5012857;28;20053;-87
2022/01/20 05:37:22;;;;;;;11.88;1.80;;;;;;;;;;5003945;28;20152;-87
2022/01/20 05:39:48;;;;;;;16.98;2.67;;;;;;;;;;4999065;28;20389;-87
2022/01/20 05:42:14;;;;;;;13.65;1.88;;;;;;;;;;5003012;28;20037;-87
2022/01/20 05:44:41;;;;;;;14.20;1.90;;;;;;;;;;5000293;28;20769;-87
2022/01/20 05:47:09;;;;;;;27.02;3.15;;;;;;;;;;4998019;28;20258;-87
2022/01/20 05:49:36;;;;;;;16.75;2.78;;;;;;;;;;5002319;28;20545;-87
2022/01/20 05:52:02;;;;;;;15.75;3.33;;;;;;;;;;5001348;28;20033;-87
2022/01/20 05:54:28;;;;;;;17.52;2.58;;;;;;;;;;5017829;28;20098;-87
2022/01/20 05:56:54;;;;;;;15.50;3.00;;;;;;;;;;4998762;28;20045;-87
2022/01/20 05:59:20;;;;;;;9.07;1.63;;;;;;;;;;5005535;28;20413;-87
2022/01/20 06:01:53;;;;;;;17.15;2.75;;;;;;;;;;5004247;28;20048;-88
2022/01/20 06:04:19;;;;;;;21.85;2.85;;;;;;;;;;4997618;28;20049;-88
2022/01/20 06:06:45;;;;;;;11.43;2.72;;;;;;;;;;5004946;28;20509;-87
2022/01/20 06:09:11;;;;;;;22.60;2.97;;;;;;;;;;4996909;28;20822;-87
2022/01/20 06:11:37;;;;;;;27.40;3.55;;;;;;;;;;5000429;28;20069;-87
2022/01/20 06:14:04;;;;;;;12.43;1.80;;;;;;;;;;4997327;28;20030;-87
2022/01/20 06:16:30;;;;;;;16.80;3.10;;;;;;;;;;4999340;28;20045;-87
2022/01/20 06:18:56;;;;;;;18.65;2.67;;;;;;;;;;5000621;28;20039;-87
2022/01/20 06:21:22;;;;;;;20.35;2.72;;;;;;;;;;5012463;28;20040;-87
2022/01/20 06:23:49;;;;;;;14.20;2.05;;;;;;;;;;5002507;28;20036;-87
2022/01/20 06:26:15;;;;;;;17.35;2.05;;;;;;;;;;5002409;28;20021;-87
2022/01/20 06:28:41;;;;;;;25.88;2.60;;;;;;;;;;5004021;28;20033;-87
2022/01/20 06:31:08;;;;;;;22.17;2.60;;;;;;;;;;4998982;28;20036;-87
2022/01/20 06:33:35;;;;;;;18.30;3.22;;;;;;;;;;5015026;28;20112;-88
2022/01/20 06:36:01;;;;;;;17.42;4.00;;;;;;;;;;5000974;28;20048;-89
2022/01/20 06:38:27;;;;;;;20.17;3.13;;;;;;;;;;5017287;28;20041;-87
2022/01/20 06:40:53;;;;;;;11.52;2.38;;;;;;;;;;4995562;28;20057;-87
2022/01/20 06:43:20;;;;;;;17.88;2.88;;;;;;;;;;5004697;28;20532;-87
2022/01/20 06:45:46;;;;;;;15.98;3.03;;;;;;;;;;5003654;28;20041;-87
2022/01/20 06:48:12;;;;;;;15.48;2.08;;;;;;;;;;5002534;28;20040;-90
2022/01/20 06:50:38;;;;;;;20.92;2.78;;;;;;;;;;5002152;28;20036;-87
2022/01/20 06:53:04;;;;;;;19.98;2.10;;;;;;;;;;5011568;28;20084;-87
2022/01/20 06:55:30;;;;;;;7.28;1.65;;;;;;;;;;5002403;28;20124;-88
2022/01/20 06:57:57;;;;;;;8.98;1.85;;;;;;;;;;4997386;28;20116;-88
2022/01/20 07:00:24;;;;;;;6.38;2.42;;;;;;;;;;5002693;28;20033;-88
2022/01/20 07:02:50;;;;;;;14.60;2.20;;;;;;;;;;4996917;28;20065;-87
2022/01/20 07:05:18;;;;;;;17.83;2.25;;;;;;;;;;4997684;28;22442;-87
2022/01/20 07:07:44;;;;;;;16.13;2.15;;;;;;;;;;5011494;28;20033;-87
2022/01/20 07:10:11;;;;;;;16.67;3.13;;;;;;;;;;5020605;28;20092;-87
2022/01/20 07:12:38;;;;;;;24.98;2.25;;;;;;;;;;5010062;28;20060;-87
2022/01/20 07:15:04;;;;;;;19.38;3.40;;;;;;;;;;4997317;28;20374;-88
2022/01/20 07:17:30;;;;;;;21.98;3.28;;;;;;;;;;4996987;28;20481;-88
2022/01/20 07:19:56;;;;;;;15.98;2.60;;;;;;;;;;5005627;28;20057;-88
2022/01/20 07:22:23;;;;;;;16.65;3.00;;;;;;;;;;4995250;28;20060;-87
2022/01/20 07:24:49;;;;;;;23.25;2.15;;;;;;;;;;4996456;28;20025;-88
2022/01/20 07:27:15;;;;;;;17.95;2.50;;;;;;;;;;5012120;28;20109;-87
2022/01/20 07:29:41;;;;;;;6.28;1.48;;;;;;;;;;4998719;28;20025;-88
2022/01/20 07:32:08;;;;;;;19.15;2.25;;;;;;;;;;5000811;28;20480;-86
2022/01/20 07:34:34;;;;;;;13.40;2.88;;;;;;;;;;5001183;28;20050;-87
2022/01/20 07:37:01;;;;;;;8.10;1.60;;;;;;;;;;5012676;28;20136;-87
2022/01/20 07:39:27;;;;;;;16.92;2.83;;;;;;;;;;5013376;28;20030;-87
2022/01/20 07:41:53;;;;;;;20.58;2.22;;;;;;;;;;4999292;28;20064;-88
2022/01/20 07:44:20;;;;;;;9.27;1.30;;;;;;;;;;4998963;28;20041;-88
2022/01/20 07:46:47;;;;;;;8.38;1.38;;;;;;;;;;5002397;28;20535;-88
2022/01/20 07:49:13;;;;;;;5.47;1.33;;;;;;;;;;4997071;28;20032;-89
2022/01/20 07:51:39;;;;;;;12.95;1.90;;;;;;;;;;4999072;28;20049;-88
2022/01/20 07:54:05;;;;;;;4.38;1.20;;;;;;;;;;4995718;28;20061;-89
2022/01/20 07:56:31;;;;;;;13.75;1.38;;;;;;;;;;5012511;28;20504;-89
2022/01/20 07:58:58;;;;;;;24.42;2.85;;;;;;;;;;5004822;28;20037;-88
2022/01/20 08:01:27;;;;;;;24.63;2.15;;;;;;;;;;5000525;28;20234;-89
2022/01/20 08:03:53;;;;;;;13.90;2.28;;;;;;;;;;5012671;28;20040;-89
2022/01/20 08:06:20;;;;;;;13.35;1.90;;;;;;;;;;4998735;28;20471;-93
2022/01/20 08:08:47;;;;;;;19.30;2.40;;;;;;;;;;5006031;28;20021;-94
2022/01/20 08:11:13;;;;;;;16.13;2.95;;;;;;;;;;4995397;28;20026;-89
2022/01/20 08:13:39;;;;;;;7.45;1.65;;;;;;;;;;4995876;28;20037;-89
2022/01/20 08:16:05;;;;;;;24.95;3.63;;;;;;;;;;4994508;28;20033;-89
2022/01/20 08:18:31;;;;;;;34.85;3.03;;;;;;;;;;5000759;28;20140;-88
2022/01/20 08:20:57;;;;;;;20.25;2.60;;;;;;;;;;4995216;28;20076;-89
2022/01/20 08:23:23;;;;;;;19.02;2.35;;;;;;;;;;4997902;28;20041;-88
2022/01/20 08:25:49;;;;;;;3.47;1.13;;;;;;;;;;5006123;28;20030;-89
2022/01/20 08:28:17;;;;;;;9.05;2.10;;;;;;;;;;4993231;28;20429;-89
2022/01/20 08:30:43;;;;;;;26.23;3.10;;;;;;;;;;5003925;28;20091;-89
2022/01/20 08:33:09;;;;;;;16.50;2.25;;;;;;;;;;4999710;28;20476;-89
2022/01/20 08:35:42;;;;;;;12.57;2.13;;;;;;;;;;4999261;28;20050;-90
2022/01/20 08:38:08;;;;;;;11.82;2.53;;;;;;;;;;4993606;28;20049;-88
2022/01/20 08:40:35;;;;;;;15.57;2.50;;;;;;;;;;4989205;28;20505;-87
2022/01/20 08:43:01;;;;;;;17.10;1.85;;;;;;;;;;4982107;28;20069;-88
2022/01/20 08:45:31;;;;;;;4.85;1.60;;;;;;;;;;4997563;28;20041;-87
2022/01/20 08:47:59;;;;;;;20.10;2.53;;;;;;;;;;5001734;28;20371;-88
2022/01/20 08:50:26;;;;;;;10.20;1.35;;;;;;;;;;4996862;28;20038;-87
2022/01/20 08:52:52;;;;;;;5.10;1.25;;;;;;;;;;5002613;28;20021;-88
2022/01/20 08:55:18;;;;;;;22.50;2.97;;;;;;;;;;4994399;28;20045;-88
2022/01/20 08:57:45;;;;;;;4.57;1.17;;;;;;;;;;4994803;28;20481;-87
2022/01/20 09:00:11;;;;;;;8.80;1.38;;;;;;;;;;5000694;28;20060;-88
2022/01/20 09:02:37;;;;;;;6.70;0.50;;;;;;;;;;5004827;28;20049;-88
2022/01/20 09:05:04;;;;;;;9.82;1.55;;;;;;;;;;4998928;28;20146;-88
2022/01/20 09:07:30;;;;;;;8.55;0.85;;;;;;;;;;4996880;28;20577;-88
2022/01/20 09:09:59;;;;;;;9.90;0.98;;;;;;;;;;4999373;28;20398;-88
2022/01/20 09:17:49;;;;;;;3.03;0.88;;;;;;;;;;5015008;28;20124;-88
2022/01/20 09:20:16;;;;;;;11.82;1.48;;;;;;;;;;4999145;28;20393;-88
2022/01/20 09:22:42;;;;;;;5.10;1.45;;;;;;;;;;5013970;28;20473;-88
2022/01/20 09:25:08;;;;;;;6.82;2.40;;;;;;;;;;4999911;28;20042;-88
2022/01/20 09:27:34;;;;;;;15.65;1.83;;;;;;;;;;5002563;28;20037;-87
2022/01/20 09:30:04;;;;;;;12.63;1.60;;;;;;;;;;5004980;28;20030;-88
2022/01/20 09:32:32;;;;;;;6.65;2.72;;;;;;;;;;5001915;28;20667;-88
2022/01/20 09:35:04;;;;;;;18.27;2.85;;;;;;;;;;5011261;28;20498;-88
2022/01/20 09:37:39;;;;;;;7.32;1.77;;;;;;;;;;4992954;28;20517;-88
2022/01/20 09:40:05;;;;;;;19.27;2.03;;;;;;;;;;4975614;28;20513;-88
2022/01/20 09:42:34;;;;;;;21.02;3.83;;;;;;;;;;5001868;28;20037;-88
2022/01/20 09:45:00;;;;;;;8.27;2.03;;;;;;;;;;4982233;28;20371;-88
2022/01/20 09:47:26;;;;;;;21.05;2.47;;;;;;;;;;4982650;28;20026;-88
2022/01/20 09:49:54;;;;;;;26.70;4.18;;;;;;;;;;4977122;28;20280;-89
2022/01/20 09:52:22;;;;;;;11.90;2.08;;;;;;;;;;4978699;28;20140;-88
2022/01/20 09:54:48;;;;;;;8.32;1.95;;;;;;;;;;4982831;28;20061;-86
2022/01/20 09:57:14;;;;;;;13.18;2.60;;;;;;;;;;4981677;28;20088;-88
2022/01/20 09:59:40;;;;;;;14.50;2.45;;;;;;;;;;4998167;28;20048;-87
2022/01/20 10:02:09;;;;;;;8.43;1.77;;;;;;;;;;4988462;28;20026;-88
2022/01/20 10:04:35;;;;;;;14.50;2.60;;;;;;;;;;4986871;28;20033;-88
2022/01/20 10:07:03;;;;;;;25.38;2.90;;;;;;;;;;4980423;28;20049;-88
2022/01/20 10:09:41;;;;;;;6.07;1.23;;;;;;;;;;4984772;28;20045;-88
2022/01/20 10:12:08;;;;;;;16.17;2.53;;;;;;;;;;4979984;28;20116;-88
2022/01/20 10:14:56;;;;;;;8.15;1.42;;;;;;;;;;4997847;28;20463;-89
2022/01/20 10:17:31;;;;;;;19.40;2.40;;;;;;;;;;4981290;28;20520;-87
2022/01/20 10:20:00;;;;;;;6.97;1.02;;;;;;;;;;4993665;28;20528;-87
2022/01/20 10:22:27;;;;;;;25.75;3.80;;;;;;;;;;4980025;28;20202;-87
2022/01/20 10:24:58;;;;;;;12.75;2.33;;;;;;;;;;4978906;28;20142;-87
2022/01/20 10:27:24;;;;;;;18.98;2.78;;;;;;;;;;4980001;28;20130;-87
2022/01/20 10:30:01;;;;;;;14.98;2.40;;;;;;;;;;4993999;28;20034;-88
2022/01/20 10:32:27;;;;;;;17.42;4.75;;;;;;;;;;5001867;28;20083;-87
2022/01/20 10:35:01;;;;;;;14.15;2.78;;;;;;;;;;4981364;28;20879;-88
2022/01/20 10:37:27;;;;;;;14.95;2.90;;;;;;;;;;4999600;28;20034;-88
2022/01/20 10:39:53;;;;;;;15.32;3.08;;;;;;;;;;5008731;28;20296;-88
2022/01/20 10:42:21;;;;;;;16.30;2.30;;;;;;;;;;4996763;28;20045;-88
2022/01/20 10:44:47;;;;;;;13.43;2.33;;;;;;;;;;5001535;28;20489;-87
2022/01/20 10:47:14;;;;;;;13.10;1.95;;;;;;;;;;4991769;28;20129;-87
2022/01/20 10:49:40;;;;;;;11.57;1.55;;;;;;;;;;4998073;28;20060;-88
2022/01/20 10:52:07;;;;;;;11.38;2.58;;;;;;;;;;4998869;28;20033;-88
2022/01/20 10:54:43;;;;;;;11.93;2.17;;;;;;;;;;5008397;28;20766;-88
2022/01/20 10:57:11;;;;;;;18.88;3.10;;;;;;;;;;4994253;28;21691;-87
2022/01/20 10:59:47;;;;;;;19.23;3.88;;;;;;;;;;4997343;28;20244;-88
2022/01/20 11:02:13;;;;;;;9.35;4.13;;;;;;;;;;4995570;28;20513;-87
2022/01/20 11:04:40;;;;;;;20.77;5.88;;;;;;;;;;4992926;28;20026;-88
2022/01/20 11:07:08;;;;;;;18.45;4.55;;;;;;;;;;5013105;28;20021;-88
2022/01/20 11:09:39;;;;;;;9.05;1.52;;;;;;;;;;4995324;28;20154;-88
2022/01/20 11:12:05;;;;;;;18.33;2.15;;;;;;;;;;4994485;28;20124;-88
2022/01/20 11:14:32;;;;;;;11.05;2.08;;;;;;;;;;5010836;28;20148;-88
2022/01/20 11:16:59;;;;;;;10.13;2.00;;;;;;;;;;4993283;28;20508;-87
2022/01/20 11:19:25;;;;;;;13.82;2.45;;;;;;;;;;5000182;28;20041;-88
2022/01/20 11:21:52;;;;;;;10.57;2.30;;;;;;;;;;5013371;28;20042;-88
2022/01/20 11:24:18;;;;;;;17.42;5.55;;;;;;;;;;4989632;28;20046;-88
2022/01/20 11:26:52;;;;;;;20.45;4.10;;;;;;;;;;5001386;28;20309;-91
2022/01/20 11:29:20;;;;;;;14.27;4.07;;;;;;;;;;5012037;28;20034;-93
2022/01/20 11:31:49;;;;;;;11.70;3.90;;;;;;;;;;5019198;28;20097;-93
2022/01/20 11:34:18;;;;;;;21.50;3.75;;;;;;;;;;5015406;28;20045;-90
2022/01/20 11:36:45;;;;;;;10.18;2.50;;;;;;;;;;4996436;28;20061;-88
2022/01/20 11:39:12;;;;;;;12.13;2.53;;;;;;;;;;4982282;28;20545;-86
2022/01/20 11:41:49;;;;;;;18.23;2.15;;;;;;;;;;4975626;28;20113;-88
2022/01/20 11:44:17;;;;;;;24.35;2.50;;;;;;;;;;4993444;28;20053;-87
2022/01/20 11:46:44;;;;;;;12.25;3.58;;;;;;;;;;4974532;28;20097;-88
2022/01/20 11:49:12;;;;;;;17.63;3.08;;;;;;;;;;4982488;28;20137;-87
2022/01/20 11:51:46;;;;;;;13.27;2.97;;;;;;;;;;4975189;28;20066;-86
2022/01/20 11:54:12;;;;;;;10.65;2.95;;;;;;;;;;4979247;28;20213;-86
2022/01/20 11:56:42;;;;;;;7.68;3.03;;;;;;;;;;4987404;28;20041;-88
2022/01/20 11:59:11;;;;;;;21.10;2.65;;;;;;;;;;4994817;28;20030;-85
2022/01/20 12:01:55;;;;;;;18.83;3.13;;;;;;;;;;4973408;28;20576;-87
2022/01/20 12:04:34;;;;;;;15.98;2.72;;;;;;;;;;4979061;28;20069;-86
2022/01/20 12:07:01;;;;;;;10.00;2.08;;;;;;;;;;4996254;28;20030;-87
2022/01/20 12:09:31;;;;;;;14.63;1.95;;;;;;;;;;4976690;28;20452;-87
2022/01/20 12:11:57;;;;;;;13.35;2.63;;;;;;;;;;4979542;28;20457;-86
2022/01/20 12:14:38;;;;;;;6.22;2.30;;;;;;;;;;4981483;28;20029;-86
2022/01/20 12:17:13;;;;;;;15.70;2.78;;;;;;;;;;4973491;28;20034;-86
2022/01/20 12:19:39;;;;;;;9.35;2.35;;;;;;;;;;4993301;28;20034;-88
2022/01/20 12:22:05;;;;;;;13.63;2.88;;;;;;;;;;4977975;28;20044;-87
2022/01/20 12:24:33;;;;;;;14.50;2.70;;;;;;;;;;4974431;28;20581;-86
2022/01/20 12:26:59;;;;;;;12.65;2.38;;;;;;;;;;4978973;28;20045;-88
2022/01/20 12:29:35;;;;;;;21.58;3.42;;;;;;;;;;4997737;28;20121;-88
2022/01/20 12:32:01;;;;;;;16.08;2.70;;;;;;;;;;4974984;28;20481;-87
2022/01/20 12:34:27;;;;;;;14.68;2.78;;;;;;;;;;4993818;28;20048;-87
2022/01/20 12:36:54;;;;;;;19.13;3.00;;;;;;;;;;4985529;28;20042;-86
2022/01/20 12:39:28;;;;;;;9.88;3.10;;;;;;;;;;4999791;28;20033;-89
2022/01/20 12:41:58;;;;;;;13.27;3.35;;;;;;;;;;4995880;28;20042;-90
2022/01/20 12:45:00;;;;;;;6.15;1.80;;;;;;;;;;5001120;28;20042;-93
2022/01/20 12:47:27;;;;;;;20.35;2.58;;;;;;;;;;4990030;28;20510;-90
2022/01/20 12:49:54;;;;;;;15.80;2.88;;;;;;;;;;4982902;28;20037;-90
2022/01/20 12:52:20;;;;;;;9.30;1.88;;;;;;;;;;4986131;28;20446;-88
2022/01/20 12:54:48;;;;;;;13.20;2.47;;;;;;;;;;4980337;28;20037;-88
2022/01/20 12:57:14;;;;;;;17.63;3.15;;;;;;;;;;4979985;28;20926;-90
2022/01/20 12:59:42;;;;;;;15.20;2.33;;;;;;;;;;4980909;28;20056;-88
2022/01/20 13:02:19;;;;;;;18.45;2.85;;;;;;;;;;4975148;28;20042;-86
2022/01/20 13:04:46;;;;;;;21.40;2.72;;;;;;;;;;4998030;28;20057;-88
2022/01/20 13:07:16;;;;;;;18.58;2.75;;;;;;;;;;4973093;28;20544;-87
2022/01/20 13:09:53;;;;;;;12.73;1.98;;;;;;;;;;4983463;28;20030;-93
2022/01/20 13:12:31;;;;;;;11.75;2.10;;;;;;;;;;4990845;28;20018;-87
2022/01/20 13:14:57;;;;;;;15.20;2.58;;;;;;;;;;4985733;28;20093;-92
2022/01/20 13:17:25;;;;;;;7.18;2.50;;;;;;;;;;4982036;28;20053;-88
2022/01/20 13:19:54;;;;;;;10.60;2.47;;;;;;;;;;4987572;28;20501;-89
2022/01/20 13:22:27;;;;;;;4.30;1.52;;;;;;;;;;4984262;28;20040;-88
2022/01/20 13:24:54;;;;;;;11.38;1.25;;;;;;;;;;4975618;28;20514;-87
2022/01/20 13:27:20;;;;;;;8.30;1.05;;;;;;;;;;4985099;28;20038;-94
2022/01/20 13:29:49;;;;;;;3.55;1.13;;;;;;;;;;4984663;28;20080;-90
2022/01/20 13:32:16;;;;;;;12.02;1.55;;;;;;;;;;4985871;28;20209;-89
2022/01/20 13:34:52;;;;;;;7.03;1.33;;;;;;;;;;4980881;28;20053;-91
2022/01/20 13:37:25;;;;;;;9.23;1.77;;;;;;;;;;5013945;28;20497;-96
2022/01/20 13:39:57;;;;;;;8.85;2.22;;;;;;;;;;4997635;28;20032;-94
2022/01/20 13:45:03;;;;;;;5.10;0.70;;;;;;;;;;5003143;28;20051;-89
2022/01/20 13:45:15;;;;;;;14.10;1.20;;;;;;;;;;5000807;28;20034;-92
2022/01/20 13:47:48;;;;;;;8.30;1.25;;;;;;;;;;5000349;28;20124;-87
2022/01/20 13:50:19;;;;;;;3.63;1.40;;;;;;;;;;5000689;28;20108;-87
2022/01/20 13:52:45;;;;;;;5.75;1.58;;;;;;;;;;4996743;28;20028;-87
2022/01/20 13:55:18;;;;;;;3.70;1.17;;;;;;;;;;5001042;28;20037;-87
2022/01/20 13:57:45;;;;;;;7.78;1.45;;;;;;;;;;4991146;28;20037;-87
2022/01/20 14:00:14;;;;;;;13.07;2.20;;;;;;;;;;4994191;28;20040;-88
2022/01/20 14:02:40;;;;;;;7.20;1.67;;;;;;;;;;5006322;28;20032;-87
2022/01/20 14:05:06;;;;;;;7.97;1.33;;;;;;;;;;4997246;28;20410;-87
2022/01/20 14:07:33;;;;;;;14.23;2.38;;;;;;;;;;5003545;28;20025;-87
2022/01/20 14:09:59;;;;;;;16.85;1.63;;;;;;;;;;4996977;28;20128;-87
2022/01/20 14:12:25;;;;;;;24.02;5.10;;;;;;;;;;5001652;28;20033;-87
2022/01/20 14:14:51;;;;;;;14.80;2.92;;;;;;;;;;5011776;28;20789;-88
2022/01/20 14:17:22;;;;;;;22.30;3.60;;;;;;;;;;5000141;28;20089;-87
2022/01/20 14:19:59;;;;;;;14.30;2.53;;;;;;;;;;4999585;28;20033;-89
2022/01/20 14:22:25;;;;;;;15.68;3.28;;;;;;;;;;4999556;28;20029;-88
2022/01/20 14:24:52;;;;;;;19.50;2.88;;;;;;;;;;5001582;28;20497;-87
2022/01/20 14:27:19;;;;;;;26.85;3.13;;;;;;;;;;5011586;28;20696;-87
2022/01/20 14:29:47;;;;;;;9.73;2.35;;;;;;;;;;5000398;28;20055;-87
2022/01/20 14:32:13;;;;;;;17.98;3.22;;;;;;;;;;4996537;28;20465;-87
2022/01/20 14:34:40;;;;;;;8.43;1.63;;;;;;;;;;5014069;28;20498;-87
2022/01/20 14:37:06;;;;;;;17.88;1.98;;;;;;;;;;4995652;28;20106;-87
2022/01/20 14:39:33;;;;;;;14.88;2.08;;;;;;;;;;4998199;28;20048;-87
2022/01/20 14:41:59;;;;;;;15.25;1.05;;;;;;;;;;4988791;28;20275;-87
2022/01/20 14:44:25;;;;;;;11.45;2.58;;;;;;;;;;4997463;28;20071;-87
2022/01/20 14:46:51;;;;;;;12.80;1.88;;;;;;;;;;4995672;28;20097;-87
2022/01/20 14:49:18;;;;;;;10.20;2.00;;;;;;;;;;5016004;28;20429;-87
2022/01/20 14:51:44;;;;;;;16.77;2.22;;;;;;;;;;4996520;28;20523;-87
2022/01/20 14:54:10;;;;;;;16.85;2.40;;;;;;;;;;5015231;28;20104;-87
2022/01/20 14:56:36;;;;;;;20.08;2.95;;;;;;;;;;4945401;28;20169;-87
2022/01/20 14:59:03;;;;;;;9.93;1.98;;;;;;;;;;4960589;28;20118;-88
2022/01/20 15:01:29;;;;;;;7.90;2.15;;;;;;;;;;4976893;28;20030;-87
2022/01/20 15:03:55;;;;;;;12.88;2.22;;;;;;;;;;4961295;28;20049;-87
2022/01/20 15:06:21;;;;;;;11.88;1.70;;;;;;;;;;4961541;28;20030;-87
2022/01/20 15:08:47;;;;;;;15.05;2.10;;;;;;;;;;4970288;28;20038;-88
2022/01/20 15:11:13;;;;;;;17.73;2.45;;;;;;;;;;4957414;28;20569;-87
2022/01/20 15:13:39;;;;;;;11.50;2.60;;;;;;;;;;4959520;28;20310;-87
2022/01/20 15:16:06;;;;;;;17.30;2.28;;;;;;;;;;4972798;28;20031;-87
2022/01/20 15:18:32;;;;;;;16.83;3.42;;;;;;;;;;4960190;28;20189;-88
2022/01/20 15:20:59;;;;;;;11.57;3.20;;;;;;;;;;4975797;28;20045;-87
2022/01/20 15:23:25;;;;;;;13.70;1.88;;;;;;;;;;4950982;28;20367;-87
2022/01/20 15:25:51;;;;;;;21.73;2.92;;;;;;;;;;4965744;28;20042;-87
2022/01/20 15:28:30;;;;;;;19.15;3.10;;;;;;;;;;4949174;28;21290;-87
2022/01/20 15:30:57;;;;;;;17.98;2.08;;;;;;;;;;4956330;28;20311;-87
2022/01/20 15:33:23;;;;;;;18.13;2.28;;;;;;;;;;4960708;28;20110;-88
2022/01/20 15:35:49;;;;;;;11.32;2.42;;;;;;;;;;4960768;28;20070;-87
2022/01/20 15:38:21;;;;;;;13.82;2.13;;;;;;;;;;4967923;28;21005;-87
2022/01/20 15:40:48;;;;;;;14.27;2.47;;;;;;;;;;4955625;28;20499;-87
2022/01/20 15:43:14;;;;;;;16.15;2.67;;;;;;;;;;4958455;28;20085;-87
2022/01/20 15:45:40;;;;;;;11.15;2.92;;;;;;;;;;4972589;28;20498;-87
2022/01/20 15:48:06;;;;;;;18.65;3.05;;;;;;;;;;4975699;28;20058;-87